Terminal Aerodrome Forecast
Issued by NWS Chicago, IL

Home | Current Version | Previous Version | Text Only | Print | Product List | Glossary Off
Versions: 1 2 3 4 5 6 7 8 9 10 11 12 13 14 15 16 17 18 19 20 21 22 23 24 25 26

039
FTUS43 KLOT 030932 AAC
TAFRFD
TAF AMD
KRFD 030932Z 0310/0406 23005KT 1/2SM FG OVC002
     FM031200 22012G19KT P6SM OVC015
     FM031400 23015G25KT P6SM OVC015
     FM031900 28015G25KT P6SM OVC020=

USA.gov is the U.S. government's official web portal to all federal, state and local government web resources and services.